Time;durP1;ratioP1;P1;durP2;ratioP2;P2;SDS_P1;SDS_P2;PMS_P1;PMS_P2;Temp;Humidity;BMP_temperature;BMP_pressure;BME280_temperature;BME280_humidity;BME280_pressure;Samples;Min_cycle;Max_cycle;Signal;HPM_P1;HPM_P2
2022/03/05 00:01:39;;;;;;;1.27;1.10;;;18.20;37.30;;;;;;5085113;28;20164;-85
2022/03/05 00:04:05;;;;;;;1.63;1.20;;;18.10;37.40;;;;;;5068027;28;20161;-84
2022/03/05 00:06:32;;;;;;;1.42;1.20;;;18.10;37.50;;;;;;5066476;28;20192;-84
2022/03/05 00:08:58;;;;;;;1.92;1.20;;;18.10;37.60;;;;;;5080165;28;20157;-85
2022/03/05 00:11:27;;;;;;;2.35;1.27;;;18.10;37.40;;;;;;5078319;28;20188;-84
2022/03/05 00:13:56;;;;;;;3.30;1.40;;;18.10;37.80;;;;;;5060842;28;20275;-84
2022/03/05 00:16:25;;;;;;;1.48;1.17;;;18.00;37.40;;;;;;5061085;28;20686;-84
2022/03/05 00:18:53;;;;;;;1.60;1.20;;;18.10;37.50;;;;;;5043138;28;20188;-85
2022/03/05 00:21:22;;;;;;;1.85;1.10;;;18.10;37.60;;;;;;5044153;28;20255;-85
2022/03/05 00:23:51;;;;;;;1.42;1.20;;;18.10;37.80;;;;;;5027337;28;20176;-84
2022/03/05 00:26:19;;;;;;;2.15;1.20;;;18.10;37.60;;;;;;5060401;28;20212;-85
2022/03/05 00:28:48;;;;;;;2.22;1.42;;;18.00;37.60;;;;;;5043587;28;20234;-83
2022/03/05 00:31:17;;;;;;;1.45;1.23;;;18.10;37.70;;;;;;5060762;28;20261;-84
2022/03/05 00:33:42;;;;;;;1.60;1.02;;;18.00;37.90;;;;;;5060234;28;20332;-85
2022/03/05 00:36:08;;;;;;;1.77;0.95;;;18.00;37.80;;;;;;5060967;28;20702;-85
2022/03/05 00:38:33;;;;;;;1.17;1.08;;;18.00;38.00;;;;;;5077780;28;20161;-85
2022/03/05 00:40:59;;;;;;;1.30;1.20;;;18.00;38.10;;;;;;5077832;28;20177;-85
2022/03/05 00:43:25;;;;;;;1.38;1.23;;;18.00;37.90;;;;;;5077551;28;20184;-85
2022/03/05 00:45:52;;;;;;;1.15;1.05;;;18.00;37.80;;;;;;5044101;28;20235;-84
2022/03/05 00:48:21;;;;;;;1.42;1.00;;;18.00;37.90;;;;;;5059750;28;20181;-84
2022/03/05 00:50:49;;;;;;;1.35;1.02;;;17.90;37.90;;;;;;5076690;28;20180;-84
2022/03/05 00:53:18;;;;;;;1.63;1.30;;;18.00;37.80;;;;;;5043397;28;20176;-84
2022/03/05 00:55:46;;;;;;;2.05;1.33;;;17.90;38.00;;;;;;5060185;28;20540;-84
2022/03/05 00:58:14;;;;;;;1.48;1.08;;;18.00;38.00;;;;;;5043224;28;20176;-84
2022/03/05 01:00:43;;;;;;;1.27;1.00;;;18.00;38.00;;;;;;5043333;28;20182;-84
2022/03/05 01:03:10;;;;;;;1.40;1.20;;;18.00;37.90;;;;;;5043315;28;20670;-83
2022/03/05 01:05:38;;;;;;;1.20;1.10;;;18.00;38.00;;;;;;5043140;28;20240;-85
2022/03/05 01:08:04;;;;;;;2.13;1.40;;;18.00;37.80;;;;;;5043228;28;20267;-85
2022/03/05 01:10:30;;;;;;;2.50;1.20;;;18.00;38.00;;;;;;5095038;28;20192;-83
2022/03/05 01:12:55;;;;;;;1.95;1.55;;;18.00;38.00;;;;;;5095540;28;20194;-84
2022/03/05 01:15:21;;;;;;;1.92;1.20;;;18.00;37.90;;;;;;5076953;28;20161;-84
2022/03/05 01:17:46;;;;;;;1.60;1.02;;;18.00;38.00;;;;;;5094916;28;20231;-85
2022/03/05 01:20:12;;;;;;;2.22;1.23;;;18.00;37.90;;;;;;5094936;28;20611;-83
2022/03/05 01:22:38;;;;;;;1.67;1.30;;;18.00;38.20;;;;;;5095081;28;20235;-84
2022/03/05 01:25:04;;;;;;;1.33;1.08;;;18.00;38.20;;;;;;5094716;28;20145;-84
2022/03/05 01:27:29;;;;;;;2.25;1.20;;;17.90;38.20;;;;;;5076837;28;20164;-84
2022/03/05 01:29:57;;;;;;;3.00;1.30;;;17.90;38.70;;;;;;5060269;28;20206;-84
2022/03/05 01:32:25;;;;;;;1.13;1.00;;;17.90;38.20;;;;;;5042726;28;20196;-84
2022/03/05 01:34:52;;;;;;;1.65;1.20;;;18.00;38.20;;;;;;5055752;28;20248;-85
2022/03/05 01:37:19;;;;;;;1.55;1.00;;;17.90;38.20;;;;;;5055798;28;20644;-84
2022/03/05 01:39:45;;;;;;;1.25;1.10;;;17.90;38.10;;;;;;5055891;28;20271;-84
2022/03/05 01:42:12;;;;;;;1.08;0.98;;;18.00;38.20;;;;;;5072798;28;20154;-85
2022/03/05 01:44:39;;;;;;;1.83;1.23;;;17.90;38.20;;;;;;5055710;28;20185;-84
2022/03/05 01:47:06;;;;;;;2.03;1.20;;;18.00;38.30;;;;;;5055415;28;20571;-84
2022/03/05 01:49:32;;;;;;;2.05;1.10;;;17.90;38.30;;;;;;5072859;28;20160;-84
2022/03/05 01:51:58;;;;;;;1.45;1.23;;;17.80;38.30;;;;;;5056587;28;20153;-84
2022/03/05 01:54:24;;;;;;;1.40;1.17;;;18.00;38.20;;;;;;5073144;28;20157;-84
2022/03/05 01:56:49;;;;;;;1.80;1.23;;;17.90;38.30;;;;;;5039459;28;20188;-84
2022/03/05 01:59:15;;;;;;;1.92;1.27;;;17.90;38.40;;;;;;5075587;28;20162;-85
2022/03/05 02:01:41;;;;;;;1.00;0.90;;;17.90;38.30;;;;;;5043714;28;20199;-85
2022/03/05 02:04:06;;;;;;;1.10;1.00;;;17.90;38.10;;;;;;5081024;28;20176;-86
2022/03/05 02:06:32;;;;;;;1.42;1.10;;;17.90;38.20;;;;;;5064204;28;20189;-86
2022/03/05 02:09:00;;;;;;;1.30;1.17;;;17.90;38.30;;;;;;5080888;28;20172;-86
2022/03/05 02:11:28;;;;;;;2.55;1.05;;;17.90;38.40;;;;;;5062735;28;20237;-85
2022/03/05 02:13:56;;;;;;;1.58;1.10;;;17.90;38.20;;;;;;5045436;28;20177;-85
2022/03/05 02:16:22;;;;;;;1.58;1.30;;;17.90;38.40;;;;;;5038780;28;20247;-85
2022/03/05 02:18:52;;;;;;;1.98;1.30;;;17.90;38.20;;;;;;5056049;28;20149;-85
2022/03/05 02:21:19;;;;;;;1.80;1.20;;;17.90;38.30;;;;;;5038520;28;20196;-85
2022/03/05 02:23:47;;;;;;;1.30;1.20;;;17.90;38.30;;;;;;5022086;28;20181;-85
2022/03/05 02:26:13;;;;;;;1.20;1.10;;;17.90;38.40;;;;;;5054952;28;20252;-84
2022/03/05 02:28:38;;;;;;;1.25;1.10;;;17.90;38.30;;;;;;5055308;28;20185;-85
2022/03/05 02:31:04;;;;;;;1.45;1.15;;;17.90;38.30;;;;;;5055530;28;20604;-85
2022/03/05 02:33:30;;;;;;;1.67;1.02;;;17.90;38.40;;;;;;5055356;28;20220;-85
2022/03/05 02:35:57;;;;;;;1.58;1.20;;;17.90;38.40;;;;;;5072373;28;20159;-84
2022/03/05 02:38:23;;;;;;;1.30;1.20;;;17.90;38.40;;;;;;5054687;28;20187;-84
2022/03/05 02:40:50;;;;;;;1.20;1.08;;;17.90;38.30;;;;;;5054971;28;20160;-84
2022/03/05 02:43:16;;;;;;;1.80;0.88;;;17.90;38.40;;;;;;5054485;28;20231;-84
2022/03/05 02:45:42;;;;;;;1.33;1.08;;;17.80;38.30;;;;;;5072065;28;20193;-84
2022/03/05 02:48:11;;;;;;;1.42;1.10;;;17.80;38.30;;;;;;5055388;28;20245;-84
2022/03/05 02:50:36;;;;;;;1.25;1.10;;;17.80;38.40;;;;;;5054755;28;20276;-85
2022/03/05 02:53:02;;;;;;;1.83;1.23;;;17.80;38.40;;;;;;5055204;28;20200;-84
2022/03/05 02:55:29;;;;;;;2.17;1.13;;;17.80;38.50;;;;;;5055291;28;20215;-85
2022/03/05 02:57:55;;;;;;;1.65;1.10;;;17.80;38.30;;;;;;5054380;28;20204;-85
2022/03/05 03:00:21;;;;;;;1.20;1.10;;;17.80;38.40;;;;;;5073137;28;20614;-84
2022/03/05 03:02:49;;;;;;;1.50;1.13;;;17.80;38.30;;;;;;5071867;28;20160;-84
2022/03/05 03:05:16;;;;;;;1.23;1.00;;;17.90;38.40;;;;;;5073124;28;20628;-84
2022/03/05 03:07:42;;;;;;;1.13;1.02;;;17.90;38.40;;;;;;5071876;28;20145;-85
2022/03/05 03:10:08;;;;;;;1.13;0.93;;;17.80;38.50;;;;;;5071818;28;20177;-87
2022/03/05 03:12:35;;;;;;;2.30;1.20;;;17.80;38.50;;;;;;5073059;28;20154;-85
2022/03/05 03:15:00;;;;;;;1.20;1.10;;;17.80;38.60;;;;;;5071737;28;20157;-84
2022/03/05 03:17:27;;;;;;;2.38;1.20;;;17.80;38.50;;;;;;5055223;28;20156;-85
2022/03/05 03:19:53;;;;;;;1.40;1.15;;;17.80;38.70;;;;;;5054821;28;20154;-84
2022/03/05 03:22:19;;;;;;;2.47;1.20;;;17.80;38.60;;;;;;5071745;28;20158;-85
2022/03/05 03:24:45;;;;;;;2.17;1.20;;;17.80;38.40;;;;;;5073283;28;20158;-84
2022/03/05 03:27:12;;;;;;;2.10;1.30;;;17.80;38.40;;;;;;5072752;28;20200;-84
2022/03/05 03:29:40;;;;;;;1.20;1.10;;;17.80;38.40;;;;;;5054274;28;20182;-85
2022/03/05 03:32:07;;;;;;;1.20;0.93;;;17.80;38.60;;;;;;5038005;28;20185;-85
2022/03/05 03:34:35;;;;;;;1.13;1.02;;;17.80;38.50;;;;;;5053924;28;20281;-85
2022/03/05 03:37:02;;;;;;;1.40;1.10;;;17.80;38.50;;;;;;5054465;28;20192;-84
2022/03/05 03:39:29;;;;;;;1.40;1.20;;;17.80;38.70;;;;;;5054182;28;20181;-85
2022/03/05 03:41:54;;;;;;;1.30;1.10;;;17.90;38.60;;;;;;5020937;28;20583;-85
2022/03/05 03:44:20;;;;;;;2.38;1.23;;;17.80;38.60;;;;;;5071695;28;20207;-83
2022/03/05 03:46:47;;;;;;;2.13;1.00;;;17.80;38.70;;;;;;5073145;28;20189;-86
2022/03/05 03:49:14;;;;;;;1.50;1.08;;;17.80;38.50;;;;;;5053988;28;20181;-87
2022/03/05 03:51:40;;;;;;;1.45;1.10;;;17.80;38.60;;;;;;5021024;28;20181;-85
2022/03/05 03:54:06;;;;;;;1.23;0.95;;;17.80;38.60;;;;;;5076334;28;20162;-84
2022/03/05 03:56:32;;;;;;;1.60;0.95;;;17.80;38.60;;;;;;5058296;28;20162;-85
2022/03/05 03:58:58;;;;;;;1.70;1.30;;;17.80;38.50;;;;;;5042315;28;20549;-87
2022/03/05 04:01:24;;;;;;;1.30;1.20;;;17.70;38.60;;;;;;5076676;28;20165;-85
2022/03/05 04:03:50;;;;;;;1.23;1.13;;;17.80;38.70;;;;;;5075828;28;20162;-86
2022/03/05 04:06:16;;;;;;;1.45;0.90;;;17.70;38.60;;;;;;5074830;28;20277;-86
2022/03/05 04:08:42;;;;;;;1.10;0.95;;;17.80;38.70;;;;;;5058163;28;20513;-85
2022/03/05 04:11:11;;;;;;;1.95;1.10;;;17.80;38.60;;;;;;5075316;28;20150;-85
2022/03/05 04:13:37;;;;;;;1.65;1.17;;;17.80;38.60;;;;;;5041778;28;20180;-84
2022/03/05 04:16:03;;;;;;;1.67;1.25;;;17.80;38.50;;;;;;5074757;28;20691;-84
2022/03/05 04:18:29;;;;;;;1.67;1.17;;;17.80;38.50;;;;;;5075048;28;20157;-84
2022/03/05 04:20:56;;;;;;;1.52;1.08;;;17.80;38.60;;;;;;5074328;28;20179;-84
2022/03/05 04:23:21;;;;;;;1.83;1.17;;;17.80;38.80;;;;;;5074711;28;20160;-85
2022/03/05 04:25:47;;;;;;;2.30;1.35;;;17.80;38.70;;;;;;5057721;28;20204;-85
2022/03/05 04:28:13;;;;;;;1.00;0.90;;;17.80;38.50;;;;;;5057736;28;20524;-85
2022/03/05 04:30:39;;;;;;;1.40;1.08;;;17.70;38.70;;;;;;5074502;28;20189;-85
2022/03/05 04:33:05;;;;;;;1.70;1.30;;;17.70;38.70;;;;;;5079105;28;20671;-84
2022/03/05 04:35:30;;;;;;;1.48;1.08;;;17.70;38.70;;;;;;5077732;28;20161;-85
2022/03/05 04:37:56;;;;;;;1.30;1.00;;;17.80;38.70;;;;;;5060918;28;20165;-84
2022/03/05 04:40:22;;;;;;;1.52;1.20;;;17.70;38.60;;;;;;5095722;28;20153;-85
2022/03/05 04:42:49;;;;;;;1.25;1.02;;;17.70;38.70;;;;;;5061097;28;20177;-84
2022/03/05 04:45:16;;;;;;;1.40;1.08;;;17.70;38.70;;;;;;5077936;28;20655;-85
2022/03/05 04:47:44;;;;;;;2.53;1.30;;;17.60;38.80;;;;;;5043455;28;20524;-85
2022/03/05 04:50:11;;;;;;;1.38;1.13;;;17.70;38.90;;;;;;5043619;28;20192;-86
2022/03/05 04:52:38;;;;;;;1.48;0.90;;;17.80;38.80;;;;;;5043364;28;20181;-85
2022/03/05 04:55:06;;;;;;;1.52;1.10;;;17.80;38.90;;;;;;5043263;28;20181;-84
2022/03/05 04:57:33;;;;;;;1.45;1.20;;;17.70;38.90;;;;;;5060138;28;20521;-84
2022/03/05 05:00:01;;;;;;;2.00;1.10;;;17.70;38.80;;;;;;5026563;28;20596;-83
2022/03/05 05:02:27;;;;;;;1.10;1.00;;;17.70;38.90;;;;;;5059631;28;20229;-84
2022/03/05 05:04:55;;;;;;;1.35;1.10;;;17.70;38.90;;;;;;5059095;28;20184;-85
2022/03/05 05:07:22;;;;;;;1.10;1.00;;;17.70;38.80;;;;;;5059596;28;20246;-85
2022/03/05 05:09:49;;;;;;;1.50;1.00;;;17.70;38.70;;;;;;5059673;28;20282;-84
2022/03/05 05:12:16;;;;;;;1.70;1.23;;;17.70;38.70;;;;;;5059836;28;20204;-86
2022/03/05 05:14:42;;;;;;;1.30;1.17;;;17.70;38.70;;;;;;5042897;28;20176;-86
2022/03/05 05:17:08;;;;;;;1.65;1.27;;;17.70;38.80;;;;;;5060450;28;20172;-85
2022/03/05 05:19:35;;;;;;;1.73;1.00;;;17.70;38.90;;;;;;5059178;28;20658;-86
2022/03/05 05:22:04;;;;;;;1.33;1.00;;;17.70;38.90;;;;;;5059581;28;20187;-85
2022/03/05 05:24:32;;;;;;;1.58;1.10;;;17.70;38.80;;;;;;5043219;28;20180;-85
2022/03/05 05:26:59;;;;;;;1.35;0.90;;;17.70;38.80;;;;;;5059287;28;20606;-85
2022/03/05 05:29:26;;;;;;;1.95;1.00;;;17.70;38.90;;;;;;5042712;28;20184;-84
2022/03/05 05:31:53;;;;;;;2.17;1.05;;;17.70;38.90;;;;;;5043011;28;20271;-86
2022/03/05 05:34:20;;;;;;;1.35;1.25;;;17.60;39.00;;;;;;5039244;28;20316;-86
2022/03/05 05:36:47;;;;;;;1.00;0.80;;;17.60;39.10;;;;;;5022979;28;20208;-85
2022/03/05 05:39:15;;;;;;;1.50;0.98;;;17.70;38.90;;;;;;5074312;28;20158;-84
2022/03/05 05:41:41;;;;;;;1.23;0.95;;;17.70;38.90;;;;;;5074342;28;20172;-84
2022/03/05 05:44:08;;;;;;;1.27;1.05;;;17.70;38.90;;;;;;5056830;28;20620;-84
2022/03/05 05:46:34;;;;;;;1.70;0.90;;;17.70;38.90;;;;;;5073885;28;20239;-83
2022/03/05 05:49:00;;;;;;;1.40;0.95;;;17.70;39.00;;;;;;5056225;28;20566;-84
2022/03/05 05:51:27;;;;;;;1.52;1.10;;;17.70;39.00;;;;;;5056230;28;20150;-84
2022/03/05 05:53:53;;;;;;;1.42;1.10;;;17.60;38.80;;;;;;5056147;28;20243;-84
2022/03/05 05:56:19;;;;;;;2.65;1.23;;;17.70;38.90;;;;;;5073965;28;20266;-84
2022/03/05 05:58:45;;;;;;;0.90;0.80;;;17.60;38.90;;;;;;5072884;28;20564;-85
2022/03/05 06:01:11;;;;;;;1.17;0.80;;;17.60;38.90;;;;;;5056136;28;20157;-84
2022/03/05 06:03:37;;;;;;;2.65;1.25;;;17.70;39.00;;;;;;5072778;28;20271;-83
2022/03/05 06:06:02;;;;;;;1.98;1.30;;;17.70;39.10;;;;;;5072692;28;20199;-84
2022/03/05 06:08:28;;;;;;;0.98;0.88;;;17.60;38.90;;;;;;5055948;28;20154;-85
2022/03/05 06:10:55;;;;;;;1.02;0.93;;;17.60;39.10;;;;;;5072618;28;20677;-84
2022/03/05 06:13:21;;;;;;;1.35;0.93;;;17.60;39.00;;;;;;5055389;28;20255;-82
2022/03/05 06:15:47;;;;;;;1.95;1.00;;;17.60;39.10;;;;;;5053495;28;20149;-84
2022/03/05 06:18:13;;;;;;;1.85;1.17;;;17.70;39.10;;;;;;5070811;28;20527;-84
2022/03/05 06:20:38;;;;;;;1.20;1.05;;;17.70;38.70;;;;;;5071483;28;20157;-84
2022/03/05 06:23:04;;;;;;;1.02;0.93;;;17.70;38.90;;;;;;5072260;28;20244;-84
2022/03/05 06:25:31;;;;;;;1.50;1.10;;;17.70;39.10;;;;;;5072067;28;20247;-84
2022/03/05 06:27:56;;;;;;;1.10;1.00;;;17.70;39.10;;;;;;5055415;28;20525;-83
2022/03/05 06:30:22;;;;;;;1.10;1.00;;;17.60;39.10;;;;;;5072250;28;20626;-84
2022/03/05 06:32:48;;;;;;;1.15;1.00;;;17.60;39.10;;;;;;5040392;28;20197;-83
2022/03/05 06:35:13;;;;;;;1.23;1.00;;;17.60;39.10;;;;;;5075459;28;20165;-85
2022/03/05 06:37:39;;;;;;;0.85;0.70;;;17.60;39.10;;;;;;5058927;28;20260;-84
2022/03/05 06:40:06;;;;;;;1.23;0.93;;;17.60;39.10;;;;;;5093546;28;20159;-84
2022/03/05 06:42:32;;;;;;;2.15;1.00;;;17.60;39.10;;;;;;5075578;28;20176;-85
2022/03/05 06:44:58;;;;;;;1.75;1.00;;;17.70;39.10;;;;;;5075499;28;20596;-84
2022/03/05 06:47:24;;;;;;;2.10;1.08;;;17.60;39.10;;;;;;5075451;28;20556;-82
2022/03/05 06:49:49;;;;;;;0.98;0.90;;;17.60;39.10;;;;;;5059161;28;20281;-82
2022/03/05 06:52:15;;;;;;;1.20;1.00;;;17.70;39.10;;;;;;5078671;28;20675;-82
2022/03/05 06:54:42;;;;;;;2.22;1.20;;;17.60;39.10;;;;;;5099411;28;20148;-82
2022/03/05 06:57:08;;;;;;;1.00;0.90;;;17.60;39.10;;;;;;5063465;28;20224;-82
2022/03/05 06:59:34;;;;;;;1.60;0.85;;;17.70;39.10;;;;;;5064019;28;20207;-83
2022/03/05 07:01:59;;;;;;;3.70;1.08;;;17.70;39.10;;;;;;5080575;28;20157;-83
2022/03/05 07:04:25;;;;;;;1.27;1.02;;;17.70;39.00;;;;;;5059488;28;20497;-82
2022/03/05 07:06:55;;;;;;;1.65;1.10;;;17.80;39.00;;;;;;5058968;28;20654;-82
2022/03/05 07:09:21;;;;;;;1.35;1.10;;;17.70;39.00;;;;;;5041846;28;20184;-83
2022/03/05 07:11:47;;;;;;;1.38;1.20;;;17.70;39.00;;;;;;5058804;28;20165;-82
2022/03/05 07:14:13;;;;;;;1.38;0.80;;;17.70;39.00;;;;;;5059991;28;20157;-83
2022/03/05 07:16:39;;;;;;;2.00;1.02;;;17.70;39.00;;;;;;5078101;28;20506;-82
2022/03/05 07:19:05;;;;;;;1.73;1.10;;;17.70;39.10;;;;;;5061406;28;20536;-83
2022/03/05 07:21:34;;;;;;;1.17;0.90;;;17.70;39.10;;;;;;5061383;28;20559;-83
2022/03/05 07:24:00;;;;;;;1.50;1.13;;;17.60;39.00;;;;;;5046208;28;20184;-82
2022/03/05 07:26:26;;;;;;;1.20;1.00;;;17.70;39.10;;;;;;5078194;28;20562;-82
2022/03/05 07:28:52;;;;;;;1.85;1.00;;;17.70;39.10;;;;;;5079851;28;20175;-83
2022/03/05 07:31:18;;;;;;;1.08;0.90;;;17.70;38.90;;;;;;5079150;28;20223;-82
2022/03/05 07:33:43;;;;;;;1.20;0.98;;;17.70;39.00;;;;;;5079006;28;20228;-82
2022/03/05 07:36:09;;;;;;;1.23;0.88;;;17.80;39.10;;;;;;5062392;28;20243;-81
2022/03/05 07:38:35;;;;;;;1.95;1.00;;;17.70;38.90;;;;;;5081287;28;20627;-82
2022/03/05 07:41:01;;;;;;;1.35;0.98;;;17.70;38.90;;;;;;5062829;28;20167;-82
2022/03/05 07:43:27;;;;;;;1.60;0.90;;;17.70;38.90;;;;;;5062072;28;20164;-82
2022/03/05 07:45:53;;;;;;;1.85;1.02;;;17.70;38.90;;;;;;5078689;28;20191;-82
2022/03/05 07:48:21;;;;;;;1.52;1.10;;;17.70;38.90;;;;;;5078721;28;20153;-82
2022/03/05 07:50:48;;;;;;;1.40;1.10;;;17.80;38.90;;;;;;5079115;28;20198;-82
2022/03/05 07:53:13;;;;;;;1.70;1.10;;;17.80;38.90;;;;;;5078738;28;20199;-83
2022/03/05 07:55:39;;;;;;;1.88;1.17;;;17.80;38.80;;;;;;5061540;28;20161;-82
2022/03/05 07:58:05;;;;;;;1.17;1.05;;;17.90;38.50;;;;;;5079034;28;20273;-83
2022/03/05 08:00:31;;;;;;;1.30;0.90;;;17.90;38.30;;;;;;5096733;28;20153;-83
2022/03/05 08:02:57;;;;;;;1.42;1.00;;;17.90;38.20;;;;;;5096507;28;20322;-83
2022/03/05 08:05:23;;;;;;;1.05;0.80;;;17.90;38.10;;;;;;5061470;28;20167;-83
2022/03/05 08:07:49;;;;;;;0.77;0.70;;;18.00;38.10;;;;;;5061494;28;20149;-82
2022/03/05 08:10:15;;;;;;;2.88;1.10;;;18.10;37.60;;;;;;5078311;28;20218;-82
2022/03/05 08:12:45;;;;;;;2.10;1.00;;;18.20;37.60;;;;;;5078694;28;20176;-82
2022/03/05 08:15:11;;;;;;;1.23;0.80;;;18.20;37.40;;;;;;5044200;28;20204;-83
2022/03/05 08:17:47;;;;;;;1.10;1.00;;;18.20;37.30;;;;;;5061513;28;20188;-83
2022/03/05 08:20:12;;;;;;;1.10;1.00;;;18.20;37.30;;;;;;5061504;28;20153;-82
2022/03/05 08:22:38;;;;;;;0.80;0.80;;;18.20;37.20;;;;;;5061154;28;20153;-82
2022/03/05 08:25:05;;;;;;;1.85;0.90;;;18.20;37.20;;;;;;5061257;28;20198;-83
2022/03/05 08:27:31;;;;;;;1.67;1.20;;;18.20;37.10;;;;;;5078460;28;20205;-83
2022/03/05 08:29:56;;;;;;;2.25;1.00;;;18.20;37.00;;;;;;5077994;28;20553;-82
2022/03/05 08:32:22;;;;;;;0.77;0.70;;;18.30;37.00;;;;;;5061264;28;20199;-83
2022/03/05 08:34:48;;;;;;;2.05;0.93;;;18.30;37.00;;;;;;5077786;28;20219;-83
2022/03/05 08:37:14;;;;;;;1.63;1.10;;;18.30;36.70;;;;;;5078334;28;20153;-83
2022/03/05 08:39:40;;;;;;;1.40;0.90;;;18.30;36.50;;;;;;5076758;28;20196;-82
2022/03/05 08:42:07;;;;;;;0.63;0.60;;;18.40;36.40;;;;;;5077864;28;20160;-82
2022/03/05 08:44:33;;;;;;;1.33;0.80;;;18.40;36.30;;;;;;5061165;28;20635;-82
2022/03/05 08:46:59;;;;;;;1.17;0.90;;;18.40;36.30;;;;;;5061334;28;20192;-82
2022/03/05 08:49:25;;;;;;;1.05;0.88;;;18.50;36.20;;;;;;5077528;28;20172;-82
2022/03/05 08:51:51;;;;;;;1.38;0.90;;;18.40;36.10;;;;;;5077755;28;20153;-83
2022/03/05 08:54:18;;;;;;;1.85;0.90;;;18.40;36.00;;;;;;5077949;28;20517;-82
2022/03/05 08:56:44;;;;;;;1.27;0.70;;;18.50;35.90;;;;;;5061040;28;20664;-83
2022/03/05 08:59:10;;;;;;;0.73;0.73;;;18.40;35.70;;;;;;5060955;28;20168;-83
2022/03/05 09:01:36;;;;;;;0.93;0.80;;;18.60;35.60;;;;;;5083726;28;20149;-83
2022/03/05 09:04:02;;;;;;;2.15;0.90;;;18.50;35.70;;;;;;5060989;28;20215;-83
2022/03/05 09:06:27;;;;;;;1.10;0.90;;;18.40;35.60;;;;;;5078127;28;20534;-82
2022/03/05 09:08:53;;;;;;;0.80;0.75;;;18.60;35.60;;;;;;5077525;28;20157;-82
2022/03/05 09:11:19;;;;;;;1.23;0.93;;;18.50;35.70;;;;;;5077385;28;20155;-83
2022/03/05 09:13:45;;;;;;;3.55;0.77;;;18.60;35.30;;;;;;5077757;28;20157;-82
2022/03/05 09:16:11;;;;;;;1.00;0.90;;;18.60;35.40;;;;;;5060644;28;20169;-83
2022/03/05 09:18:37;;;;;;;2.13;0.65;;;18.60;35.20;;;;;;5060375;28;20283;-82
2022/03/05 09:21:02;;;;;;;1.27;0.70;;;18.60;35.40;;;;;;5076687;28;20184;-82
2022/03/05 09:23:28;;;;;;;0.93;0.85;;;18.60;35.10;;;;;;5060773;28;20173;-83
2022/03/05 09:25:54;;;;;;;1.05;0.95;;;18.60;35.10;;;;;;5060003;28;20196;-83
2022/03/05 09:28:20;;;;;;;0.90;0.80;;;18.60;35.20;;;;;;5077371;28;20157;-83
2022/03/05 09:30:46;;;;;;;4.07;0.80;;;18.60;35.10;;;;;;5077210;28;20168;-83
2022/03/05 09:33:11;;;;;;;1.00;0.70;;;18.60;35.10;;;;;;5056747;28;20308;-82
2022/03/05 09:35:38;;;;;;;1.00;0.80;;;18.60;34.90;;;;;;5056852;28;20172;-82
2022/03/05 09:38:04;;;;;;;2.38;0.88;;;18.70;34.70;;;;;;5057115;28;20172;-82
2022/03/05 09:40:31;;;;;;;1.38;0.90;;;18.70;34.80;;;;;;5074585;28;20263;-82
2022/03/05 09:42:56;;;;;;;0.80;0.80;;;18.70;34.80;;;;;;5056938;28;20620;-82
2022/03/05 09:45:23;;;;;;;1.23;0.98;;;18.70;34.80;;;;;;5056908;28;20168;-81
2022/03/05 09:47:49;;;;;;;2.22;0.80;;;18.70;34.80;;;;;;5073828;28;20158;-82
2022/03/05 09:50:14;;;;;;;1.15;1.00;;;18.70;34.60;;;;;;5077864;28;20158;-82
2022/03/05 09:52:40;;;;;;;2.33;1.17;;;18.70;34.80;;;;;;5058880;28;20528;-82
2022/03/05 09:55:07;;;;;;;1.00;0.90;;;18.60;34.60;;;;;;5075613;28;20516;-81
2022/03/05 09:57:33;;;;;;;1.20;0.80;;;18.70;34.50;;;;;;5074562;28;20165;-82
2022/03/05 09:59:59;;;;;;;1.40;0.77;;;18.70;34.50;;;;;;5077613;28;20244;-82
2022/03/05 10:02:29;;;;;;;1.73;0.85;;;18.70;34.60;;;;;;5074598;28;20164;-82
2022/03/05 10:05:17;;;;;;;1.95;1.00;;;18.60;34.50;;;;;;5039820;28;20177;-82
2022/03/05 10:08:00;;;;;;;2.95;0.80;;;18.60;34.70;;;;;;5073875;28;20166;-81
2022/03/05 10:10:26;;;;;;;1.55;0.80;;;18.50;34.80;;;;;;5073975;28;20523;-82
2022/03/05 10:12:52;;;;;;;1.02;0.70;;;18.60;34.60;;;;;;5074248;28;20298;-83
2022/03/05 10:15:18;;;;;;;4.20;0.65;;;18.60;34.50;;;;;;5057956;28;20633;-83
2022/03/05 10:17:58;;;;;;;1.08;0.98;;;18.60;34.30;;;;;;5074260;28;20508;-83
2022/03/05 10:20:27;;;;;;;0.70;0.68;;;18.60;34.60;;;;;;5074206;28;20596;-82
2022/03/05 10:22:55;;;;;;;2.80;1.00;;;18.60;34.70;;;;;;5057499;28;20205;-83
2022/03/05 10:25:42;;;;;;;1.85;1.10;;;18.60;34.50;;;;;;5074114;28;20158;-83
2022/03/05 10:28:13;;;;;;;1.27;0.75;;;18.70;34.20;;;;;;5075464;28;20244;-83
2022/03/05 10:30:44;;;;;;;1.88;1.10;;;18.60;34.30;;;;;;5057668;28;20173;-83
2022/03/05 10:33:30;;;;;;;1.02;0.80;;;18.70;34.10;;;;;;5038903;28;20240;-83
2022/03/05 10:35:57;;;;;;;1.02;0.85;;;18.80;34.10;;;;;;5073220;28;20192;-83
2022/03/05 10:38:41;;;;;;;0.80;0.68;;;18.80;33.80;;;;;;5057049;28;20170;-84
2022/03/05 10:41:14;;;;;;;2.63;0.85;;;18.80;33.90;;;;;;4994914;28;20177;-82
2022/03/05 10:43:45;;;;;;;2.42;1.00;;;18.90;33.90;;;;;;5055368;28;20193;-83
2022/03/05 10:46:13;;;;;;;1.48;0.77;;;18.80;33.80;;;;;;5022928;28;20683;-83
2022/03/05 10:48:41;;;;;;;0.95;0.50;;;18.80;33.70;;;;;;5038545;28;20189;-83
2022/03/05 10:51:13;;;;;;;2.35;0.80;;;18.80;33.70;;;;;;5054307;28;20322;-83
2022/03/05 10:53:45;;;;;;;1.25;0.70;;;18.80;33.60;;;;;;5036957;28;20207;-83
2022/03/05 10:56:26;;;;;;;1.30;0.60;;;18.80;33.50;;;;;;5039290;28;20205;-83
2022/03/05 10:59:07;;;;;;;1.10;0.63;;;18.80;33.40;;;;;;5072482;28;20153;-83
2022/03/05 11:01:37;;;;;;;2.65;0.80;;;18.90;33.30;;;;;;5055119;28;20165;-84
2022/03/05 11:04:04;;;;;;;1.63;0.80;;;18.90;33.30;;;;;;5021925;28;20219;-82
2022/03/05 11:06:31;;;;;;;2.30;0.70;;;18.90;33.40;;;;;;5055116;28;20220;-84
2022/03/05 11:08:58;;;;;;;2.53;0.65;;;18.90;33.40;;;;;;5021605;28;20184;-84
2022/03/05 11:11:25;;;;;;;0.90;0.68;;;18.90;33.50;;;;;;5054880;28;20679;-83
2022/03/05 11:13:52;;;;;;;1.30;0.63;;;18.80;33.30;;;;;;5022297;28;20177;-82
2022/03/05 11:16:19;;;;;;;0.73;0.65;;;18.80;33.30;;;;;;5022709;28;20181;-83
2022/03/05 11:18:46;;;;;;;1.80;0.88;;;18.90;33.30;;;;;;5039303;28;20530;-83
2022/03/05 11:21:12;;;;;;;0.85;0.70;;;18.90;33.40;;;;;;5022385;28;20177;-85
2022/03/05 11:23:40;;;;;;;0.60;0.60;;;18.90;33.50;;;;;;5039019;28;20189;-83
2022/03/05 11:26:07;;;;;;;1.02;0.80;;;18.90;33.30;;;;;;5039308;28;20212;-82
2022/03/05 11:28:36;;;;;;;0.70;0.70;;;18.90;33.20;;;;;;5039347;28;20275;-82
2022/03/05 11:31:06;;;;;;;0.80;0.50;;;18.90;33.30;;;;;;5057706;28;20173;-82
2022/03/05 11:33:38;;;;;;;1.85;0.80;;;18.90;33.20;;;;;;5057651;28;20240;-84
2022/03/05 11:36:06;;;;;;;1.15;0.57;;;19.00;33.10;;;;;;5039765;28;20196;-84
2022/03/05 11:38:36;;;;;;;0.90;0.60;;;18.90;33.00;;;;;;5071988;28;20227;-82
2022/03/05 11:41:25;;;;;;;0.90;0.70;;;19.00;33.10;;;;;;5072575;28;20589;-81
2022/03/05 11:43:51;;;;;;;1.63;0.70;;;18.90;33.00;;;;;;5072184;28;20177;-82
2022/03/05 11:46:22;;;;;;;2.65;0.80;;;18.90;32.90;;;;;;5071830;28;20192;-82
2022/03/05 11:49:05;;;;;;;1.85;0.73;;;18.90;32.90;;;;;;5054934;28;20169;-82
2022/03/05 11:51:32;;;;;;;1.83;0.73;;;19.00;32.70;;;;;;5054665;28;20222;-82
2022/03/05 11:54:11;;;;;;;1.05;0.70;;;19.00;32.80;;;;;;5055476;28;20538;-82
2022/03/05 11:56:37;;;;;;;0.80;0.70;;;19.00;32.60;;;;;;5071730;28;20169;-83
2022/03/05 11:59:33;;;;;;;0.75;0.63;;;19.10;32.70;;;;;;5071461;28;20158;-83
2022/03/05 12:01:59;;;;;;;1.45;0.93;;;19.00;32.60;;;;;;5071647;28;20166;-83
2022/03/05 12:04:28;;;;;;;0.60;0.57;;;19.00;32.60;;;;;;5054422;28;20162;-82
2022/03/05 12:06:56;;;;;;;0.70;0.70;;;19.00;32.50;;;;;;5071218;28;20193;-84
2022/03/05 12:09:41;;;;;;;3.55;0.77;;;19.00;32.60;;;;;;5054237;28;20520;-82
2022/03/05 12:12:09;;;;;;;0.63;0.60;;;19.00;32.80;;;;;;5054769;28;20192;-82
2022/03/05 12:15:07;;;;;;;1.02;0.70;;;19.00;32.60;;;;;;5055940;28;20165;-82
2022/03/05 12:17:39;;;;;;;1.15;0.60;;;19.10;32.70;;;;;;5074798;28;20505;-82
2022/03/05 12:20:07;;;;;;;0.85;0.55;;;19.10;32.30;;;;;;5041131;28;20238;-82
2022/03/05 12:22:33;;;;;;;0.80;0.65;;;19.10;32.30;;;;;;5074632;28;20142;-82
2022/03/05 12:24:59;;;;;;;2.28;1.05;;;19.10;32.40;;;;;;5074462;28;20469;-83
2022/03/05 12:27:27;;;;;;;1.98;0.65;;;19.10;32.40;;;;;;5058234;28;20666;-83
2022/03/05 12:29:53;;;;;;;1.67;0.82;;;19.10;32.20;;;;;;5074442;28;20153;-83
2022/03/05 12:32:19;;;;;;;1.05;0.60;;;19.10;32.10;;;;;;5074671;28;20526;-84
2022/03/05 12:34:45;;;;;;;2.03;0.90;;;19.10;32.10;;;;;;5057791;28;20228;-83
2022/03/05 12:37:11;;;;;;;0.93;0.60;;;19.10;32.10;;;;;;5057797;28;20161;-83
2022/03/05 12:39:44;;;;;;;1.50;0.70;;;19.10;31.90;;;;;;5074557;28;20176;-83
2022/03/05 12:42:10;;;;;;;1.00;0.57;;;19.10;31.90;;;;;;5057741;28;20193;-83
2022/03/05 12:44:40;;;;;;;1.00;0.70;;;19.10;31.90;;;;;;5057591;28;20169;-83
2022/03/05 12:47:06;;;;;;;0.93;0.60;;;19.20;32.00;;;;;;5040285;28;20713;-82
2022/03/05 12:49:32;;;;;;;0.93;0.57;;;19.10;31.80;;;;;;5057908;28;20212;-83